createdAt,value
2019-04-07T00:02:25.937Z,99066
2019-04-07T00:04:54.786Z,99067
2019-04-07T00:07:24.177Z,99059
2019-04-07T00:09:52.559Z,99067
2019-04-07T00:12:21.341Z,99067
2019-04-07T00:14:51.365Z,99070
2019-04-07T00:17:19.774Z,99065
2019-04-07T00:19:48.771Z,99064
2019-04-07T00:22:18.182Z,99062
2019-04-07T00:24:47.032Z,99068
2019-04-07T00:27:15.884Z,99066
2019-04-07T00:29:44.728Z,99069
2019-04-07T00:32:14.082Z,99068
2019-04-07T00:34:43.180Z,99073
2019-04-07T00:37:12.038Z,99074
2019-04-07T00:39:41.365Z,99073
2019-04-07T00:42:09.726Z,99071
2019-04-07T00:44:38.995Z,99073
2019-04-07T00:47:07.968Z,99068
2019-04-07T00:49:36.874Z,99063
2019-04-07T00:52:05.124Z,99062
2019-04-07T00:54:33.962Z,99059
2019-04-07T00:57:02.794Z,99061
2019-04-07T00:59:33.421Z,99067
2019-04-07T01:02:02.515Z,99073
2019-04-07T01:04:30.817Z,99071
2019-04-07T01:07:00.196Z,99077
2019-04-07T01:09:28.815Z,99078
2019-04-07T01:11:57.395Z,99079
2019-04-07T01:14:26.335Z,99076
2019-04-07T01:16:55.034Z,99072
2019-04-07T01:19:24.372Z,99077
2019-04-07T01:21:52.748Z,99075
2019-04-07T01:24:21.904Z,99087
2019-04-07T01:26:50.434Z,99081
2019-04-07T01:29:19.909Z,99085
2019-04-07T01:31:48.460Z,99096
2019-04-07T01:34:16.964Z,99096
2019-04-07T01:36:46.557Z,99094
2019-04-07T01:39:15.381Z,99097
2019-04-07T01:41:44.226Z,99095
2019-04-07T01:44:14.702Z,99094
2019-04-07T01:46:44.402Z,99100
2019-04-07T01:49:13.483Z,99092
2019-04-07T01:51:45.648Z,99093
2019-04-07T01:54:19.155Z,99094
2019-04-07T01:56:49.758Z,99087
2019-04-07T01:59:24.235Z,99088
2019-04-07T02:01:52.879Z,99088
2019-04-07T02:04:22.474Z,99077
2019-04-07T02:06:51.717Z,99089
2019-04-07T02:09:22.443Z,99094
2019-04-07T02:11:53.966Z,99092
2019-04-07T02:14:28.042Z,99091
2019-04-07T02:17:02.404Z,99102
2019-04-07T02:19:34.409Z,99092
2019-04-07T02:22:03.609Z,99100
2019-04-07T02:24:35.728Z,99093
2019-04-07T02:27:05.179Z,99095
2019-04-07T02:29:35.773Z,99099
2019-04-07T02:32:05.465Z,99102
2019-04-07T02:34:35.964Z,99103
2019-04-07T02:37:07.556Z,99101
2019-04-07T02:39:38.606Z,99101
2019-04-07T02:42:07.479Z,99097
2019-04-07T02:44:39.847Z,99105
2019-04-07T02:47:09.868Z,99097
2019-04-07T02:49:45.640Z,99104
2019-04-07T02:52:14.613Z,99095
2019-04-07T02:54:44.970Z,99095
2019-04-07T02:57:15.860Z,99103
2019-04-07T02:59:46.401Z,99106
2019-04-07T03:02:16.012Z,99108
2019-04-07T03:04:51.182Z,99111
2019-04-07T03:07:23.807Z,99107
2019-04-07T03:09:53.438Z,99097
2019-04-07T03:12:27.716Z,99103
2019-04-07T03:15:02.974Z,99101
2019-04-07T03:17:31.848Z,99096
2019-04-07T03:20:05.353Z,99106
2019-04-07T03:22:37.073Z,99112
2019-04-07T03:25:08.850Z,99108
2019-04-07T03:27:44.417Z,99111
2019-04-07T03:30:17.542Z,99107
2019-04-07T03:32:46.685Z,99109
2019-04-07T03:35:17.879Z,99107
2019-04-07T03:37:48.112Z,99114
2019-04-07T03:40:14.505Z,99113
2019-04-07T03:42:45.808Z,99116
2019-04-07T03:45:13.931Z,99113
2019-04-07T03:47:48.939Z,99122
2019-04-07T03:50:20.584Z,99119
2019-04-07T03:52:49.443Z,99114
2019-04-07T03:55:20.626Z,99116
2019-04-07T03:57:55.211Z,99128
2019-04-07T04:00:47.731Z,99134
2019-04-07T04:03:17.101Z,99143
2019-04-07T04:05:51.300Z,99137
2019-04-07T04:08:18.375Z,99135
2019-04-07T04:10:49.124Z,99131
2019-04-07T04:13:17.964Z,99132
2019-04-07T04:15:48.587Z,99136
2019-04-07T04:18:18.300Z,99140
2019-04-07T04:20:46.420Z,99136
2019-04-07T04:23:15.120Z,99145
2019-04-07T04:25:45.465Z,99145
2019-04-07T04:28:12.786Z,99150
2019-04-07T04:30:42.358Z,99154
2019-04-07T04:33:11.222Z,99150
2019-04-07T04:35:40.961Z,99146
2019-04-07T04:38:10.258Z,99152
2019-04-07T04:40:39.398Z,99152
2019-04-07T04:43:08.927Z,99153
2019-04-07T04:45:37.207Z,99153
2019-04-07T04:48:06.749Z,99155
2019-04-07T04:50:35.279Z,99161
2019-04-07T04:53:04.102Z,99166
2019-04-07T04:55:32.561Z,99150
2019-04-07T04:58:02.197Z,99156
2019-04-07T05:00:32.159Z,99161
2019-04-07T05:03:01.320Z,99160
2019-04-07T05:05:30.376Z,99172
2019-04-07T05:08:03.650Z,99177
2019-04-07T05:10:27.822Z,99176
2019-04-07T05:12:56.138Z,99179
2019-04-07T05:15:24.759Z,99188
2019-04-07T05:17:54.836Z,99201
2019-04-07T05:20:24.019Z,99196
2019-04-07T05:22:53.468Z,99195
2019-04-07T05:25:22.792Z,99207
2019-04-07T05:27:51.629Z,99202
2019-04-07T05:30:20.571Z,99210
2019-04-07T05:32:49.371Z,99202
2019-04-07T05:35:18.735Z,99211
2019-04-07T05:37:58.824Z,99207
2019-04-07T05:40:16.549Z,99213
2019-04-07T05:42:45.315Z,99216
2019-04-07T05:45:13.564Z,99221
2019-04-07T05:47:47.324Z,99224
2019-04-07T05:50:12.214Z,99232
2019-04-07T05:52:40.944Z,99232
2019-04-07T05:55:09.803Z,99233
2019-04-07T05:57:38.754Z,99236
2019-04-07T06:00:14.231Z,99244
2019-04-07T06:02:38.300Z,99247
2019-04-07T06:05:07.144Z,99246
2019-04-07T06:07:37.124Z,99242
2019-04-07T06:10:05.364Z,99238
2019-04-07T06:12:33.916Z,99238
2019-04-07T06:15:02.529Z,99244
2019-04-07T06:17:31.513Z,99244
2019-04-07T06:20:00.205Z,99246
2019-04-07T06:22:29.307Z,99243
2019-04-07T06:25:00.754Z,99241
2019-04-07T06:27:28.921Z,99242
2019-04-07T06:29:59.559Z,99239
2019-04-07T06:32:25.459Z,99244
2019-04-07T06:34:55.138Z,99251
2019-04-07T06:37:27.789Z,99241
2019-04-07T06:39:52.589Z,99248
2019-04-07T06:42:22.037Z,99249
2019-04-07T06:44:51.683Z,99249
2019-04-07T06:47:19.005Z,99249
2019-04-07T06:49:52.062Z,99252
2019-04-07T06:52:27.009Z,99257
2019-04-07T06:54:57.592Z,99256
2019-04-07T06:57:35.070Z,99248
2019-04-07T07:00:02.334Z,99255
2019-04-07T07:02:32.829Z,99259
2019-04-07T07:05:05.179Z,99263
2019-04-07T07:07:33.844Z,99259
2019-04-07T07:10:03.306Z,99258
2019-04-07T07:12:38.724Z,99259
2019-04-07T07:15:05.195Z,99270
2019-04-07T07:17:40.216Z,99272
2019-04-07T07:20:13.594Z,99271
2019-04-07T07:22:46.474Z,99276
2019-04-07T07:25:12.440Z,99273
2019-04-07T07:27:41.806Z,99279
2019-04-07T07:30:10.644Z,99269
2019-04-07T07:32:39.893Z,99275
2019-04-07T07:35:12.664Z,99274
2019-04-07T07:37:37.767Z,99273
2019-04-07T07:40:07.869Z,99267
2019-04-07T07:42:36.580Z,99272
2019-04-07T07:45:08.095Z,99259
2019-04-07T07:47:34.634Z,99272
2019-04-07T07:50:05.451Z,99263
2019-04-07T07:52:32.997Z,99267
2019-04-07T07:55:02.746Z,99280
2019-04-07T07:57:30.533Z,99279
2019-04-07T07:59:59.739Z,99276
2019-04-07T08:02:30.711Z,99282
2019-04-07T08:04:59.124Z,99287
2019-04-07T08:07:26.818Z,99275
2019-04-07T08:09:56.744Z,99276
2019-04-07T08:12:25.432Z,99278
2019-04-07T08:14:56.159Z,99277
2019-04-07T08:17:22.592Z,99280
2019-04-07T08:19:51.335Z,99280
2019-04-07T08:22:27.616Z,99286
2019-04-07T08:24:51.107Z,99279
2019-04-07T08:27:17.740Z,99272
2019-04-07T08:29:47.329Z,99272
2019-04-07T08:32:15.458Z,99278
2019-04-07T08:34:44.910Z,99275
2019-04-07T08:37:15.167Z,99278
2019-04-07T08:39:42.132Z,99280
2019-04-07T08:42:14.046Z,99282
2019-04-07T08:44:39.685Z,99283
2019-04-07T08:47:10.748Z,99282
2019-04-07T08:49:38.068Z,99281
2019-04-07T08:52:09.767Z,99275
2019-04-07T08:54:35.577Z,99273
2019-04-07T08:57:04.689Z,99277
2019-04-07T08:59:33.459Z,99285
2019-04-07T09:02:03.141Z,99267
2019-04-07T09:04:31.999Z,99273
2019-04-07T09:07:02.912Z,99276
2019-04-07T09:09:34.182Z,99281
2019-04-07T09:11:57.677Z,99277
2019-04-07T09:14:27.288Z,99285
2019-04-07T09:17:00.010Z,99284
2019-04-07T09:19:28.955Z,99275
2019-04-07T09:21:59.367Z,99279
2019-04-07T09:24:31.397Z,99283
2019-04-07T09:27:01.132Z,99270
2019-04-07T09:29:33.763Z,99277
2019-04-07T09:32:08.316Z,99287
2019-04-07T09:34:41.418Z,99284
2019-04-07T09:37:13.819Z,99291
2019-04-07T09:39:56.883Z,99289
2019-04-07T09:42:17.026Z,99290
2019-04-07T09:44:48.459Z,99280
2019-04-07T09:47:17.900Z,99294
2019-04-07T09:49:49.553Z,99285
2019-04-07T09:52:18.719Z,99291
2019-04-07T09:54:51.733Z,99292
2019-04-07T09:57:23.556Z,99294
2019-04-07T09:59:54.263Z,99295
2019-04-07T10:02:22.199Z,99290
2019-04-07T10:04:53.619Z,99296
2019-04-07T10:07:22.929Z,99291
2019-04-07T10:09:58.827Z,99289
2019-04-07T10:12:27.769Z,99291
2019-04-07T10:14:56.316Z,99287
2019-04-07T10:17:26.165Z,99292
2019-04-07T10:19:55.146Z,99300
2019-04-07T10:22:23.998Z,99296
2019-04-07T10:24:53.568Z,99294
2019-04-07T10:27:22.327Z,99300
2019-04-07T10:29:53.325Z,99294
2019-04-07T10:32:28.078Z,99299
2019-04-07T10:34:57.701Z,99308
2019-04-07T10:37:28.953Z,99296
2019-04-07T10:40:16.337Z,99296
2019-04-07T10:42:34.834Z,99305
2019-04-07T10:45:05.830Z,99305
2019-04-07T10:47:34.710Z,99295
2019-04-07T10:50:07.027Z,99300
2019-04-07T10:52:32.617Z,99294
2019-04-07T10:55:03.559Z,99304
2019-04-07T10:57:33.355Z,99306
2019-04-07T11:00:05.844Z,99307
2019-04-07T11:02:37.791Z,99305
2019-04-07T11:05:12.030Z,99299
2019-04-07T11:07:40.473Z,99311
2019-04-07T11:10:10.026Z,99304
2019-04-07T11:12:39.635Z,99308
2019-04-07T11:15:11.211Z,99315
2019-04-07T11:17:40.774Z,99307
2019-04-07T11:20:09.453Z,99309
2019-04-07T11:22:44.106Z,99316
2019-04-07T11:25:16.774Z,99309
2019-04-07T11:27:48.517Z,99317
2019-04-07T11:30:18.067Z,99312
2019-04-07T11:32:47.756Z,99313
2019-04-07T11:35:17.050Z,99312
2019-04-07T11:37:46.141Z,99310
2019-04-07T11:40:17.195Z,99313
2019-04-07T11:42:48.061Z,99311
2019-04-07T11:45:16.498Z,99311
2019-04-07T11:47:45.910Z,99308
2019-04-07T11:50:16.835Z,99316
2019-04-07T11:52:46.262Z,99312
2019-04-07T11:55:21.704Z,99321
2019-04-07T11:58:10.892Z,99318
2019-04-07T12:00:26.961Z,99321
2019-04-07T12:02:56.022Z,99310
2019-04-07T12:05:29.682Z,99315
2019-04-07T12:08:04.962Z,99320
2019-04-07T12:10:33.186Z,99324
2019-04-07T12:13:04.860Z,99309
2019-04-07T12:15:36.551Z,99315
2019-04-07T12:18:14.997Z,99312
2019-04-07T12:20:44.057Z,99317
2019-04-07T12:23:17.970Z,99314
2019-04-07T12:25:49.249Z,99315
2019-04-07T12:28:24.652Z,99311
2019-04-07T12:30:56.361Z,99311
2019-04-07T12:33:26.594Z,99311
2019-04-07T12:35:56.375Z,99299
2019-04-07T12:38:26.411Z,99306
2019-04-07T12:41:10.970Z,99300
2019-04-07T12:43:27.174Z,99299
2019-04-07T12:45:56.641Z,99293
2019-04-07T12:48:31.710Z,99295
2019-04-07T12:50:59.515Z,99299
2019-04-07T12:53:34.400Z,99297
2019-04-07T12:56:02.498Z,99292
2019-04-07T12:58:36.858Z,99310
2019-04-07T13:01:12.724Z,99320
2019-04-07T13:03:36.468Z,99293
2019-04-07T13:06:07.608Z,99293
2019-04-07T13:08:40.356Z,99288
2019-04-07T13:11:15.838Z,99289
2019-04-07T13:13:40.629Z,99283
2019-04-07T13:16:10.547Z,99292
2019-04-07T13:18:45.604Z,99289
2019-04-07T13:21:15.515Z,99290
2019-04-07T13:23:47.127Z,99290
2019-04-07T13:26:17.578Z,99291
2019-04-07T13:28:48.903Z,99281
2019-04-07T13:31:19.173Z,99287
2019-04-07T13:33:51.207Z,99285
2019-04-07T13:36:25.227Z,99289
2019-04-07T13:38:57.789Z,99287
2019-04-07T13:41:38.008Z,99287
2019-04-07T13:43:56.586Z,99290
2019-04-07T13:46:31.858Z,99287
2019-04-07T13:49:00.553Z,99290
2019-04-07T13:51:29.138Z,99288
2019-04-07T13:54:03.245Z,99289
2019-04-07T13:56:31.830Z,99289
2019-04-07T13:59:01.000Z,99288
2019-04-07T14:01:32.527Z,99281
2019-04-07T14:04:00.152Z,99289
2019-04-07T14:06:31.864Z,99284
2019-04-07T14:09:04.236Z,99289
2019-04-07T14:11:35.126Z,99291
2019-04-07T14:14:09.771Z,99287
2019-04-07T14:16:41.238Z,99290
2019-04-07T14:19:09.220Z,99290
2019-04-07T14:21:40.601Z,99291
2019-04-07T14:24:13.366Z,99307
2019-04-07T14:26:44.905Z,99295
2019-04-07T14:29:15.253Z,99306
2019-04-07T14:31:45.510Z,99304
2019-04-07T14:34:20.629Z,99300
2019-04-07T14:36:50.432Z,99312
2019-04-07T14:39:20.567Z,99308
2019-04-07T14:42:03.320Z,99305
2019-04-07T14:44:29.320Z,99311
2019-04-07T14:47:03.246Z,99317
2019-04-07T14:49:31.832Z,99317
2019-04-07T14:52:01.335Z,99312
2019-04-07T14:54:30.546Z,99318
2019-04-07T14:56:59.247Z,99311
2019-04-07T14:59:34.007Z,99319
2019-04-07T15:02:02.433Z,99320
2019-04-07T15:04:35.704Z,99317
2019-04-07T15:07:08.021Z,99318
2019-04-07T15:09:37.102Z,99314
2019-04-07T15:12:16.138Z,99318
2019-04-07T15:14:34.951Z,99319
2019-04-07T15:17:04.623Z,99319
2019-04-07T15:19:33.237Z,99316
2019-04-07T15:22:03.033Z,99318
2019-04-07T15:24:30.639Z,99315
2019-04-07T15:26:59.308Z,99318
2019-04-07T15:29:28.829Z,99321
2019-04-07T15:31:56.835Z,99320
2019-04-07T15:34:26.367Z,99319
2019-04-07T15:36:54.545Z,99319
2019-04-07T15:39:37.455Z,99387
2019-04-07T15:42:07.970Z,99325
2019-04-07T15:44:36.951Z,99327
2019-04-07T15:47:03.869Z,99325
2019-04-07T15:49:34.324Z,99327
2019-04-07T15:52:06.743Z,99328
2019-04-07T15:54:31.163Z,99335
2019-04-07T15:57:00.039Z,99331
2019-04-07T15:59:29.791Z,99331
2019-04-07T16:01:57.687Z,99338
2019-04-07T16:04:29.269Z,99345
2019-04-07T16:06:56.562Z,99338
2019-04-07T16:09:34.603Z,99341
2019-04-07T16:11:57.455Z,99343
2019-04-07T16:14:24.114Z,99343
2019-04-07T16:16:53.570Z,99346
2019-04-07T16:19:33.487Z,99340
2019-04-07T16:21:49.912Z,99341
2019-04-07T16:24:20.986Z,99348
2019-04-07T16:26:47.951Z,99348
2019-04-07T16:29:18.109Z,99343
2019-04-07T16:31:45.241Z,99356
2019-04-07T16:34:14.353Z,99349
2019-04-07T16:36:43.370Z,99346
2019-04-07T16:39:11.785Z,99348
2019-04-07T16:41:44.208Z,99350
2019-04-07T16:44:10.684Z,99362
2019-04-07T16:46:39.175Z,99354
2019-04-07T16:49:11.408Z,99354
2019-04-07T16:51:38.319Z,99356
2019-04-07T16:54:08.662Z,99364
2019-04-07T16:56:35.017Z,99363
2019-04-07T16:59:08.415Z,99368
2019-04-07T17:01:33.628Z,99367
2019-04-07T17:04:02.967Z,99375
2019-04-07T17:06:34.667Z,99373
2019-04-07T17:09:00.425Z,99374
2019-04-07T17:11:28.936Z,99384
2019-04-07T17:14:01.081Z,99380
2019-04-07T17:16:26.870Z,99376
2019-04-07T17:18:56.268Z,99384
2019-04-07T17:21:24.229Z,99388
2019-04-07T17:23:55.425Z,99383
2019-04-07T17:26:23.858Z,99386
2019-04-07T17:28:50.948Z,99382
2019-04-07T17:31:19.635Z,99389
2019-04-07T17:33:49.206Z,99395
2019-04-07T17:36:21.099Z,99386
2019-04-07T17:38:47.795Z,99394
2019-04-07T17:41:18.243Z,99396
2019-04-07T17:43:52.773Z,99402
2019-04-07T17:46:19.162Z,99403
2019-04-07T17:48:57.212Z,99402
2019-04-07T17:51:30.718Z,99406
2019-04-07T17:54:04.637Z,99413
2019-04-07T17:56:36.849Z,99412
2019-04-07T17:59:08.694Z,99416
2019-04-07T18:01:37.761Z,99422
2019-04-07T18:04:11.377Z,99420
2019-04-07T18:06:40.363Z,99419
2019-04-07T18:09:12.789Z,99424
2019-04-07T18:11:44.860Z,99420
2019-04-07T18:14:19.186Z,99427
2019-04-07T18:16:48.269Z,99423
2019-04-07T18:19:22.272Z,99432
2019-04-07T18:21:53.396Z,99438
2019-04-07T18:24:20.790Z,99439
2019-04-07T18:26:55.193Z,99447
2019-04-07T18:29:31.864Z,99448
2019-04-07T18:32:00.024Z,99455
2019-04-07T18:34:31.515Z,99461
2019-04-07T18:36:59.944Z,99464
2019-04-07T18:39:31.903Z,99455
2019-04-07T18:42:06.995Z,99463
2019-04-07T18:44:35.218Z,99467
2019-04-07T18:47:02.650Z,99468
2019-04-07T18:49:33.759Z,99471
2019-04-07T18:52:05.729Z,99480
2019-04-07T18:54:34.218Z,99481
2019-04-07T18:57:10.899Z,99480
2019-04-07T18:59:41.087Z,99490
2019-04-07T19:02:16.297Z,99496
2019-04-07T19:04:45.706Z,99495
2019-04-07T19:07:16.998Z,99494
2019-04-07T19:09:45.575Z,99497
2019-04-07T19:12:21.454Z,99497
2019-04-07T19:15:01.180Z,99498
2019-04-07T19:17:26.873Z,99504
2019-04-07T19:19:57.414Z,99503
2019-04-07T19:22:25.951Z,99508
2019-04-07T19:25:04.205Z,99512
2019-04-07T19:27:31.044Z,99513
2019-04-07T19:30:00.490Z,99512
2019-04-07T19:32:31.247Z,99515
2019-04-07T19:35:02.759Z,99524
2019-04-07T19:37:36.711Z,99520
2019-04-07T19:40:06.597Z,99520
2019-04-07T19:42:43.876Z,99517
2019-04-07T19:45:12.181Z,99523
2019-04-07T19:47:41.708Z,99524
2019-04-07T19:50:14.688Z,99518
2019-04-07T19:52:43.325Z,99522
2019-04-07T19:55:14.299Z,99520
2019-04-07T19:57:43.003Z,99523
2019-04-07T20:00:14.249Z,99531
2019-04-07T20:02:44.579Z,99527
2019-04-07T20:05:19.601Z,99533
2019-04-07T20:07:46.855Z,99531
2019-04-07T20:10:21.538Z,99539
2019-04-07T20:12:46.640Z,99536
2019-04-07T20:15:17.831Z,99553
2019-04-07T20:17:45.500Z,99557
2019-04-07T20:20:15.345Z,99551
2019-04-07T20:22:44.927Z,99555
2019-04-07T20:25:17.574Z,99556
2019-04-07T20:27:49.110Z,99554
2019-04-07T20:30:21.260Z,99562
2019-04-07T20:32:49.716Z,99565
2019-04-07T20:35:20.865Z,99564
2019-04-07T20:37:56.593Z,99566
2019-04-07T20:40:23.609Z,99564
2019-04-07T20:42:58.410Z,99556
2019-04-07T20:45:26.807Z,99557
2019-04-07T20:48:00.124Z,99566
2019-04-07T20:50:26.764Z,99556
2019-04-07T20:53:08.375Z,99551
2019-04-07T20:55:27.597Z,99557
2019-04-07T20:58:13.108Z,99562
2019-04-07T21:00:35.664Z,99566
2019-04-07T21:03:13.852Z,99564
2019-04-07T21:05:33.900Z,99569
2019-04-07T21:08:04.098Z,99576
2019-04-07T21:10:36.886Z,99567
2019-04-07T21:13:10.944Z,99574
2019-04-07T21:15:41.113Z,99576
2019-04-07T21:18:12.986Z,99577
2019-04-07T21:20:42.838Z,99579
2019-04-07T21:23:18.158Z,99577
2019-04-07T21:25:45.020Z,99578
2019-04-07T21:28:13.898Z,99584
2019-04-07T21:30:44.669Z,99579
2019-04-07T21:33:17.429Z,99581
2019-04-07T21:35:46.008Z,99584
2019-04-07T21:38:20.830Z,99590
2019-04-07T21:40:46.607Z,99589
2019-04-07T21:43:15.475Z,99596
2019-04-07T21:45:52.011Z,99589
2019-04-07T21:48:24.372Z,99601
2019-04-07T21:50:55.108Z,99605
2019-04-07T21:53:28.833Z,99604
2019-04-07T21:55:57.409Z,99606
2019-04-07T21:58:27.482Z,99608
2019-04-07T22:00:57.026Z,99606
2019-04-07T22:03:27.782Z,99594
2019-04-07T22:06:02.949Z,99603
2019-04-07T22:08:32.681Z,99598
2019-04-07T22:11:01.534Z,99598
2019-04-07T22:13:32.862Z,99606
2019-04-07T22:16:02.933Z,99594
2019-04-07T22:18:28.881Z,99591
2019-04-07T22:20:57.529Z,99591
2019-04-07T22:23:29.523Z,99591
2019-04-07T22:25:55.992Z,99596
2019-04-07T22:28:27.638Z,99597
2019-04-07T22:30:53.627Z,99587
2019-04-07T22:33:25.133Z,99591
2019-04-07T22:35:51.385Z,99590
2019-04-07T22:38:22.924Z,99594
2019-04-07T22:40:49.915Z,99588
2019-04-07T22:43:18.860Z,99602
2019-04-07T22:45:55.094Z,99601
2019-04-07T22:48:15.476Z,99604
2019-04-07T22:50:44.317Z,99608
2019-04-07T22:53:13.156Z,99602
2019-04-07T22:55:42.732Z,99612
2019-04-07T22:58:11.802Z,99611
2019-04-07T23:00:40.451Z,99606
2019-04-07T23:03:09.963Z,99606
2019-04-07T23:05:38.093Z,99604
2019-04-07T23:08:06.951Z,99598
2019-04-07T23:10:35.900Z,99602
2019-04-07T23:13:05.615Z,99610
2019-04-07T23:15:41.601Z,99613
2019-04-07T23:18:03.234Z,99610
2019-04-07T23:20:32.030Z,99625
2019-04-07T23:23:00.896Z,99621
2019-04-07T23:25:30.205Z,99627
2019-04-07T23:27:59.279Z,99617
2019-04-07T23:30:28.130Z,99613
2019-04-07T23:32:57.778Z,99621
2019-04-07T23:35:25.791Z,99618
2019-04-07T23:37:55.319Z,99628
2019-04-07T23:40:23.755Z,99624
2019-04-07T23:42:53.020Z,99630
2019-04-07T23:45:21.949Z,99637
2019-04-07T23:47:50.801Z,99638
2019-04-07T23:50:19.682Z,99644
2019-04-07T23:52:48.481Z,99642
2019-04-07T23:55:17.314Z,99637
2019-04-07T23:57:46.531Z,99644
